createdAt,value
2022-11-20T00:01:31.916Z,55.80
2022-11-20T00:03:59.837Z,54.23
2022-11-20T00:06:28.667Z,46.50
2022-11-20T00:08:57.804Z,47.97
2022-11-20T00:11:26.929Z,52.50
2022-11-20T00:13:58.187Z,52.30
2022-11-20T00:16:27.948Z,59.23
2022-11-20T00:18:55.505Z,59.40
2022-11-20T00:21:27.343Z,52.40
2022-11-20T00:23:56.699Z,57.70
2022-11-20T00:26:26.077Z,52.27
2022-11-20T00:28:59.085Z,51.83
2022-11-20T00:31:26.879Z,55.77
2022-11-20T00:33:53.806Z,49.20
2022-11-20T00:36:23.760Z,48.70
2022-11-20T00:38:58.757Z,54.07
2022-11-20T00:41:27.949Z,50.33
2022-11-20T00:43:56.127Z,56.13
2022-11-20T00:46:25.976Z,51.90
2022-11-20T00:48:53.187Z,55.00
2022-11-20T00:51:23.789Z,49.70
2022-11-20T00:53:50.781Z,52.50
2022-11-20T00:56:19.686Z,51.30
2022-11-20T00:58:48.870Z,53.77
2022-11-20T01:01:20.303Z,48.00
2022-11-20T01:03:50.691Z,54.60
2022-11-20T01:06:25.230Z,47.50
2022-11-20T01:08:58.393Z,51.50
2022-11-20T01:11:31.765Z,60.23
2022-11-20T01:14:00.515Z,52.97
2022-11-20T01:16:37.954Z,60.70
2022-11-20T01:19:08.099Z,57.53
2022-11-20T01:21:40.792Z,52.23
2022-11-20T01:24:11.015Z,48.53
2022-11-20T01:26:40.650Z,54.73
2022-11-20T01:29:10.234Z,44.90
2022-11-20T01:31:38.265Z,45.30
2022-11-20T01:34:08.841Z,50.50
2022-11-20T01:36:38.031Z,45.17
2022-11-20T01:39:10.913Z,49.20
2022-11-20T01:41:56.007Z,49.63
2022-11-20T01:44:59.686Z,53.47
2022-11-20T01:47:38.237Z,56.70
2022-11-20T01:50:29.857Z,51.60
2022-11-20T01:53:03.689Z,47.20
2022-11-20T01:55:38.708Z,50.60
2022-11-20T01:58:06.146Z,52.27
2022-11-20T02:00:33.031Z,56.07
2022-11-20T02:03:06.677Z,47.53
2022-11-20T02:05:43.166Z,56.30
2022-11-20T02:08:10.096Z,54.33
2022-11-20T02:10:37.046Z,46.70
2022-11-20T02:13:23.352Z,45.93
2022-11-20T02:15:50.705Z,42.17
2022-11-20T02:18:20.192Z,59.87
2022-11-20T02:20:51.521Z,49.47
2022-11-20T02:23:29.128Z,54.23
2022-11-20T02:25:56.909Z,52.10
2022-11-20T02:28:24.321Z,51.30
2022-11-20T02:30:51.281Z,49.90
2022-11-20T02:33:18.164Z,51.20
2022-11-20T02:35:47.596Z,46.20
2022-11-20T02:38:15.515Z,45.33
2022-11-20T02:40:43.017Z,48.53
2022-11-20T02:43:10.472Z,51.23
2022-11-20T02:45:37.988Z,54.97
2022-11-20T02:48:05.105Z,46.63
2022-11-20T02:50:32.104Z,55.83
2022-11-20T02:52:59.024Z,50.57
2022-11-20T02:55:25.909Z,54.10
2022-11-20T02:57:52.873Z,49.67
2022-11-20T03:00:20.030Z,50.93
2022-11-20T03:02:47.230Z,66.53
2022-11-20T03:05:14.271Z,56.37
2022-11-20T03:07:41.174Z,55.43
2022-11-20T03:10:08.860Z,58.93
2022-11-20T03:12:35.750Z,55.93
2022-11-20T03:15:02.738Z,44.50
2022-11-20T03:17:30.661Z,51.30
2022-11-20T03:19:57.731Z,46.63
2022-11-20T03:22:24.591Z,48.47
2022-11-20T03:24:52.181Z,51.33
2022-11-20T03:27:19.109Z,46.27
2022-11-20T03:29:46.013Z,49.17
2022-11-20T03:32:12.876Z,48.83
2022-11-20T03:34:39.755Z,42.20
2022-11-20T03:37:07.196Z,44.20
2022-11-20T03:39:34.099Z,45.87
2022-11-20T03:42:00.986Z,48.80
2022-11-20T03:44:27.864Z,52.27
2022-11-20T03:46:54.784Z,45.50
2022-11-20T03:49:22.064Z,50.20
2022-11-20T03:51:49.211Z,49.53
2022-11-20T03:54:16.256Z,50.50
2022-11-20T03:56:43.163Z,51.67
2022-11-20T03:59:11.568Z,50.87
2022-11-20T04:01:38.947Z,50.80
2022-11-20T04:04:06.375Z,47.60
2022-11-20T04:06:38.459Z,48.77
2022-11-20T04:09:06.521Z,46.80
2022-11-20T04:11:38.604Z,49.80
2022-11-20T04:14:07.641Z,55.53
2022-11-20T04:16:37.641Z,54.50
2022-11-20T04:19:10.122Z,44.17
2022-11-20T04:21:37.265Z,51.10
2022-11-20T04:24:05.161Z,53.63
2022-11-20T04:26:32.216Z,46.87
2022-11-20T04:28:59.876Z,51.63
2022-11-20T04:31:32.370Z,43.73
2022-11-20T04:34:05.168Z,47.60
2022-11-20T04:36:32.588Z,60.47
2022-11-20T04:39:05.009Z,49.40
2022-11-20T04:41:35.432Z,46.03
2022-11-20T04:44:05.186Z,48.93
2022-11-20T04:46:39.619Z,48.67
2022-11-20T04:49:06.952Z,44.23
2022-11-20T04:51:34.549Z,53.33
2022-11-20T04:54:01.872Z,50.73
2022-11-20T04:56:28.835Z,49.53
2022-11-20T04:58:55.786Z,49.77
2022-11-20T05:01:25.770Z,43.93
2022-11-20T05:03:53.110Z,41.73
2022-11-20T05:06:23.442Z,44.77
2022-11-20T05:08:51.254Z,47.03
2022-11-20T05:11:21.406Z,52.10
2022-11-20T05:13:49.820Z,46.73
2022-11-20T05:16:27.130Z,54.63
2022-11-20T05:18:55.376Z,51.17
2022-11-20T05:21:22.758Z,51.30
2022-11-20T05:23:49.797Z,46.67
2022-11-20T05:26:22.818Z,42.30
2022-11-20T05:28:51.052Z,36.30
2022-11-20T05:31:27.541Z,40.37
2022-11-20T05:33:57.587Z,42.20
2022-11-20T05:36:25.075Z,48.67
2022-11-20T05:38:55.473Z,45.60
2022-11-20T05:41:25.584Z,39.07
2022-11-20T05:43:52.472Z,42.30
2022-11-20T05:46:27.753Z,43.37
2022-11-20T05:48:55.441Z,42.53
2022-11-20T05:51:22.385Z,44.77
2022-11-20T05:53:49.326Z,47.63
2022-11-20T05:56:19.717Z,39.07
2022-11-20T05:58:47.555Z,44.80
2022-11-20T06:01:24.550Z,39.93
2022-11-20T06:03:52.305Z,35.50
2022-11-20T06:06:20.741Z,43.03
2022-11-20T06:08:47.905Z,45.90
2022-11-20T06:11:16.116Z,40.47
2022-11-20T06:13:43.493Z,39.50
2022-11-20T06:16:11.984Z,45.47
2022-11-20T06:18:39.688Z,39.33
2022-11-20T06:21:19.769Z,44.97
2022-11-20T06:23:47.344Z,41.83
2022-11-20T06:26:20.701Z,34.63
2022-11-20T06:28:47.710Z,39.23
2022-11-20T06:31:17.794Z,42.70
2022-11-20T06:33:45.151Z,50.33
2022-11-20T06:36:16.026Z,33.00
2022-11-20T06:38:43.606Z,46.10
2022-11-20T06:41:17.233Z,42.30
2022-11-20T06:43:44.517Z,40.97
2022-11-20T06:46:13.469Z,39.70
2022-11-20T06:48:41.217Z,47.13
2022-11-20T06:51:09.067Z,36.97
2022-11-20T06:53:36.660Z,48.53
2022-11-20T06:56:04.518Z,48.40
2022-11-20T06:58:33.208Z,51.47
2022-11-20T07:01:11.035Z,48.23
2022-11-20T07:03:38.651Z,51.57
2022-11-20T07:06:06.900Z,45.77
2022-11-20T07:08:34.835Z,46.43
2022-11-20T07:11:07.925Z,45.40
2022-11-20T07:13:34.901Z,54.20
2022-11-20T07:16:08.357Z,45.67
2022-11-20T07:18:35.774Z,58.17
2022-11-20T07:21:09.249Z,46.53
2022-11-20T07:23:36.858Z,42.13
2022-11-20T07:26:06.160Z,49.50
2022-11-20T07:28:33.469Z,48.87
2022-11-20T07:31:00.498Z,43.37
2022-11-20T07:33:27.388Z,60.13
2022-11-20T07:35:54.374Z,62.83
2022-11-20T07:38:21.409Z,46.83
2022-11-20T07:40:48.290Z,48.63
2022-11-20T07:43:15.223Z,70.60
2022-11-20T07:45:42.941Z,52.37
2022-11-20T07:48:09.868Z,41.70
2022-11-20T07:50:36.748Z,51.03
2022-11-20T07:53:05.537Z,51.43
2022-11-20T07:55:33.454Z,48.97
2022-11-20T07:58:00.850Z,50.80
2022-11-20T08:00:28.490Z,59.53
2022-11-20T08:02:55.628Z,51.83
2022-11-20T08:05:22.573Z,46.47
2022-11-20T08:07:49.887Z,50.67
2022-11-20T08:10:17.335Z,54.60
2022-11-20T08:13:11.427Z,54.63
2022-11-20T08:15:40.406Z,56.10
2022-11-20T08:21:04.839Z,48.80
2022-11-20T08:23:31.967Z,56.73
2022-11-20T08:25:58.862Z,51.20
2022-11-20T08:28:25.762Z,53.23
2022-11-20T08:30:52.672Z,50.83
2022-11-20T08:33:19.723Z,50.43
2022-11-20T08:35:46.924Z,54.23
2022-11-20T08:38:14.043Z,53.60
2022-11-20T08:40:40.921Z,63.73
2022-11-20T08:43:07.797Z,56.47
2022-11-20T08:45:35.536Z,48.33
2022-11-20T08:48:04.426Z,53.47
2022-11-20T08:50:34.752Z,52.17
2022-11-20T08:53:07.706Z,54.47
2022-11-20T08:55:36.672Z,57.43
2022-11-20T08:58:07.611Z,59.77
2022-11-20T09:00:35.358Z,48.67
2022-11-20T09:03:02.834Z,57.90
2022-11-20T09:05:30.111Z,63.87
2022-11-20T09:07:58.436Z,55.93
2022-11-20T09:10:25.574Z,66.07
2022-11-20T09:12:53.704Z,54.87
2022-11-20T09:15:20.941Z,59.77
2022-11-20T09:18:04.677Z,64.97
2022-11-20T09:20:32.236Z,65.37
2022-11-20T09:22:59.500Z,64.23
2022-11-20T09:25:26.748Z,61.63
2022-11-20T09:28:00.438Z,63.40
2022-11-20T09:30:28.223Z,59.77
2022-11-20T09:32:55.918Z,74.10
2022-11-20T09:35:22.819Z,77.07
2022-11-20T09:37:50.015Z,80.43
2022-11-20T09:40:30.539Z,76.63
2022-11-20T09:43:12.330Z,70.00
2022-11-20T09:46:07.723Z,66.13
2022-11-20T09:48:53.208Z,69.30
2022-11-20T09:51:51.580Z,65.90
2022-11-20T09:54:46.978Z,79.97
2022-11-20T09:57:19.413Z,61.97
2022-11-20T10:00:00.729Z,64.63
2022-11-20T10:02:47.743Z,65.07
2022-11-20T10:05:28.990Z,62.80
2022-11-20T10:08:24.218Z,65.87
2022-11-20T10:11:19.171Z,70.33
2022-11-20T10:14:28.006Z,68.70
2022-11-20T10:17:26.938Z,68.43
2022-11-20T10:20:25.879Z,68.57
2022-11-20T10:23:26.220Z,63.10
2022-11-20T10:26:05.645Z,72.67
2022-11-20T10:28:57.246Z,63.23
2022-11-20T10:31:37.746Z,75.60
2022-11-20T10:34:28.029Z,50.37
2022-11-20T10:37:14.222Z,65.57
2022-11-20T10:40:07.296Z,67.53
2022-11-20T10:42:47.958Z,64.30
2022-11-20T10:45:30.230Z,63.00
2022-11-20T10:48:08.374Z,73.23
2022-11-20T10:50:41.616Z,73.10
2022-11-20T10:53:37.299Z,68.83
2022-11-20T10:56:17.546Z,56.57
2022-11-20T10:59:09.520Z,54.70
2022-11-20T11:01:43.090Z,66.20
2022-11-20T11:04:34.496Z,60.33
2022-11-20T11:07:17.964Z,52.43
2022-11-20T11:09:51.794Z,59.27
2022-11-20T11:12:19.377Z,48.60
2022-11-20T11:14:55.623Z,53.70
2022-11-20T11:17:32.549Z,48.50
2022-11-20T11:20:11.504Z,48.13
2022-11-20T11:22:53.591Z,48.73
2022-11-20T11:25:26.883Z,50.33
2022-11-20T11:27:59.021Z,54.53
2022-11-20T11:30:27.788Z,46.67
2022-11-20T11:33:11.558Z,53.63
2022-11-20T11:36:03.135Z,51.93
2022-11-20T11:38:40.802Z,42.97
2022-11-20T11:41:14.644Z,45.23
2022-11-20T11:44:13.507Z,47.63
2022-11-20T11:46:46.061Z,42.97
2022-11-20T11:49:20.461Z,50.17
2022-11-20T11:52:09.942Z,46.20
2022-11-20T11:54:56.843Z,53.00
2022-11-20T11:57:41.931Z,42.83
2022-11-20T12:00:18.261Z,46.40
2022-11-20T12:02:50.920Z,47.57
2022-11-20T12:05:25.275Z,47.27
2022-11-20T12:08:12.145Z,50.90
2022-11-20T12:11:14.262Z,50.80
2022-11-20T12:13:56.426Z,46.77
2022-11-20T12:16:23.890Z,43.43
2022-11-20T12:18:53.287Z,48.20
2022-11-20T12:21:36.922Z,51.53
2022-11-20T12:24:37.157Z,50.87
2022-11-20T12:27:45.781Z,43.20
2022-11-20T12:30:17.059Z,41.63
2022-11-20T12:33:05.716Z,52.30
2022-11-20T12:36:15.838Z,46.47
2022-11-20T12:39:33.586Z,42.13
2022-11-20T12:42:56.461Z,40.80
2022-11-20T12:46:04.624Z,46.93
2022-11-20T12:49:14.822Z,43.47
2022-11-20T12:51:56.075Z,59.57
2022-11-20T12:55:17.709Z,43.67
2022-11-20T12:57:54.415Z,50.23
2022-11-20T13:00:24.164Z,54.00
2022-11-20T13:03:14.772Z,49.67
2022-11-20T13:06:18.271Z,57.37
2022-11-20T13:08:59.763Z,59.60
2022-11-20T13:11:55.494Z,61.43
2022-11-20T13:14:40.674Z,47.37
2022-11-20T13:17:34.386Z,51.87
2022-11-20T13:20:02.058Z,72.90
2022-11-20T13:22:50.285Z,62.40
2022-11-20T13:25:40.515Z,57.53
2022-11-20T13:28:10.218Z,51.27
2022-11-20T13:30:49.984Z,56.37
2022-11-20T13:33:33.730Z,48.23
2022-11-20T13:36:20.599Z,56.63
2022-11-20T13:38:51.520Z,44.80
2022-11-20T13:41:36.318Z,47.80
2022-11-20T13:44:25.242Z,47.63
2022-11-20T13:46:52.411Z,57.33
2022-11-20T13:49:31.959Z,46.90
2022-11-20T13:52:43.624Z,58.63
2022-11-20T13:55:21.753Z,56.37
2022-11-20T13:58:41.838Z,52.80
2022-11-20T14:01:17.290Z,58.63
2022-11-20T14:04:04.975Z,54.87
2022-11-20T14:06:35.623Z,59.67
2022-11-20T14:09:02.520Z,50.47
2022-11-20T14:11:32.052Z,51.30
2022-11-20T14:14:16.762Z,53.37
2022-11-20T14:16:45.390Z,48.10
2022-11-20T14:19:21.214Z,56.83
2022-11-20T14:21:55.932Z,49.37
2022-11-20T14:24:26.045Z,55.17
2022-11-20T14:26:53.625Z,49.80
2022-11-20T14:29:35.368Z,49.27
2022-11-20T14:32:02.969Z,57.67
2022-11-20T14:34:34.034Z,73.23
2022-11-20T14:37:03.974Z,53.20
2022-11-20T14:39:38.308Z,63.13
2022-11-20T14:42:17.986Z,65.97
2022-11-20T14:44:45.652Z,74.10
2022-11-20T14:47:22.479Z,64.27
2022-11-20T14:49:51.609Z,65.80
2022-11-20T14:52:27.588Z,58.80
2022-11-20T14:55:02.005Z,70.47
2022-11-20T14:57:35.261Z,58.90
2022-11-20T15:00:22.213Z,58.20
2022-11-20T15:02:51.579Z,65.23
2022-11-20T15:05:21.931Z,64.53
2022-11-20T15:08:07.292Z,57.87
2022-11-20T15:10:34.605Z,60.53
2022-11-20T15:13:12.379Z,65.03
2022-11-20T15:15:50.570Z,75.33
2022-11-20T15:18:21.300Z,57.43
2022-11-20T15:20:49.063Z,62.57
2022-11-20T15:23:21.841Z,52.10
2022-11-20T15:25:50.071Z,67.00
2022-11-20T15:28:36.144Z,59.10
2022-11-20T15:31:04.821Z,62.03
2022-11-20T15:33:33.087Z,62.17
2022-11-20T15:36:00.519Z,50.80
2022-11-20T15:38:27.474Z,55.63
2022-11-20T15:40:54.351Z,63.17
2022-11-20T15:43:21.299Z,54.63
2022-11-20T15:45:54.059Z,56.30
2022-11-20T15:48:36.479Z,62.33
2022-11-20T15:51:12.439Z,50.07
2022-11-20T15:53:41.185Z,48.40
2022-11-20T15:56:13.135Z,55.50
2022-11-20T15:58:41.071Z,56.57
2022-11-20T16:01:13.859Z,56.90
2022-11-20T16:03:42.319Z,60.23
2022-11-20T16:06:09.476Z,58.10
2022-11-20T16:08:36.539Z,59.00
2022-11-20T16:11:03.498Z,72.70
2022-11-20T16:13:51.239Z,74.50
2022-11-20T16:16:29.148Z,57.10
2022-11-20T16:18:56.321Z,66.40
2022-11-20T16:21:28.862Z,54.30
2022-11-20T16:23:55.813Z,60.60
2022-11-20T16:26:23.214Z,67.27
2022-11-20T16:28:50.084Z,61.00
2022-11-20T16:31:19.413Z,59.20
2022-11-20T16:33:54.722Z,57.63
2022-11-20T16:36:24.961Z,58.60
2022-11-20T16:39:00.586Z,60.00
2022-11-20T16:41:31.314Z,69.47
2022-11-20T16:44:01.770Z,62.10
2022-11-20T16:46:31.775Z,59.40
2022-11-20T16:48:59.795Z,52.43
2022-11-20T16:51:28.176Z,60.53
2022-11-20T16:53:58.229Z,50.13
2022-11-20T16:56:27.591Z,46.73
2022-11-20T16:58:57.523Z,53.47
2022-11-20T17:01:26.641Z,58.20
2022-11-20T17:04:16.093Z,60.17
2022-11-20T17:06:44.600Z,54.27
2022-11-20T17:09:12.811Z,57.07
2022-11-20T17:11:40.052Z,50.87
2022-11-20T17:14:09.990Z,55.77
2022-11-20T17:16:37.910Z,51.17
2022-11-20T17:19:05.586Z,53.27
2022-11-20T17:21:36.315Z,60.57
2022-11-20T17:24:07.107Z,50.23
2022-11-20T17:26:35.681Z,50.60
2022-11-20T17:29:10.229Z,53.40
2022-11-20T17:31:38.690Z,67.17
2022-11-20T17:34:08.485Z,61.17
2022-11-20T17:36:35.890Z,54.53
2022-11-20T17:39:04.721Z,61.17
2022-11-20T17:41:31.636Z,57.23
2022-11-20T17:44:00.980Z,60.87
2022-11-20T17:46:35.124Z,65.40
2022-11-20T17:49:03.235Z,48.80
2022-11-20T17:51:35.111Z,60.00
2022-11-20T17:54:07.364Z,52.43
2022-11-20T17:56:54.067Z,59.57
2022-11-20T17:59:21.367Z,49.77
2022-11-20T18:01:48.396Z,52.27
2022-11-20T18:04:15.436Z,61.03
2022-11-20T18:06:43.339Z,50.30
2022-11-20T18:09:11.070Z,46.97
2022-11-20T18:11:41.032Z,55.33
2022-11-20T18:14:31.394Z,58.10
2022-11-20T18:17:07.736Z,61.67
2022-11-20T18:19:42.646Z,55.73
2022-11-20T18:22:20.544Z,50.97
2022-11-20T18:24:47.506Z,57.90
2022-11-20T18:27:19.391Z,46.77
2022-11-20T18:29:48.658Z,53.13
2022-11-20T18:32:15.584Z,48.17
2022-11-20T18:34:42.567Z,54.87
2022-11-20T18:37:10.720Z,58.93
2022-11-20T18:39:37.681Z,57.33
2022-11-20T18:42:22.907Z,62.30
2022-11-20T18:44:53.651Z,64.83
2022-11-20T18:47:30.738Z,77.37
2022-11-20T18:50:02.075Z,66.70
2022-11-20T18:52:38.160Z,66.50
2022-11-20T18:55:06.386Z,83.10
2022-11-20T18:57:33.735Z,73.70
2022-11-20T19:00:06.410Z,71.30
2022-11-20T19:02:40.896Z,69.37
2022-11-20T19:05:13.543Z,72.03
2022-11-20T19:07:41.185Z,68.40
2022-11-20T19:10:08.626Z,70.73
2022-11-20T19:12:35.538Z,67.43
2022-11-20T19:15:02.570Z,65.30
2022-11-20T19:17:29.470Z,71.47
2022-11-20T19:19:56.613Z,71.30
2022-11-20T19:22:23.571Z,76.10
2022-11-20T19:24:50.568Z,72.63
2022-11-20T19:27:17.493Z,73.63
2022-11-20T19:29:44.534Z,79.93
2022-11-20T19:32:11.510Z,73.73
2022-11-20T19:34:38.375Z,68.83
2022-11-20T19:37:05.420Z,68.93
2022-11-20T19:39:32.356Z,73.33
2022-11-20T19:41:59.292Z,66.93
2022-11-20T19:44:26.213Z,71.43
2022-11-20T19:46:53.130Z,72.20
2022-11-20T19:49:20.036Z,77.37
2022-11-20T19:51:49.257Z,69.73
2022-11-20T19:54:16.934Z,72.03
2022-11-20T19:56:45.576Z,63.27
2022-11-20T19:59:13.103Z,72.80
2022-11-20T20:01:40.224Z,71.60
2022-11-20T20:04:07.340Z,73.20
2022-11-20T20:06:36.455Z,61.27
2022-11-20T20:09:08.233Z,71.00
2022-11-20T20:11:36.074Z,72.37
2022-11-20T20:14:10.646Z,74.97
2022-11-20T20:16:37.646Z,71.20
2022-11-20T20:19:05.624Z,73.03
2022-11-20T20:21:35.050Z,79.87
2022-11-20T20:24:02.408Z,63.73
2022-11-20T20:26:31.933Z,68.60
2022-11-20T20:29:00.005Z,66.53
2022-11-20T20:31:29.185Z,61.90
2022-11-20T20:33:57.067Z,63.70
2022-11-20T20:36:24.733Z,66.03
2022-11-20T20:38:57.182Z,62.37
2022-11-20T20:41:25.053Z,63.63
2022-11-20T20:44:11.116Z,70.30
2022-11-20T20:46:38.300Z,63.77
2022-11-20T20:49:05.768Z,67.17
2022-11-20T20:51:32.660Z,66.80
2022-11-20T20:53:59.643Z,63.93
2022-11-20T20:56:26.777Z,58.77
2022-11-20T20:58:53.695Z,70.73
2022-11-20T21:01:22.717Z,66.70
2022-11-20T21:03:49.756Z,67.87
2022-11-20T21:06:16.963Z,68.23
2022-11-20T21:08:44.752Z,77.73
2022-11-20T21:11:17.890Z,73.43
2022-11-20T21:13:46.550Z,62.40
2022-11-20T21:16:15.440Z,64.30
2022-11-20T21:18:42.923Z,62.20
2022-11-20T21:21:32.067Z,72.73
2022-11-20T21:23:59.376Z,75.70
2022-11-20T21:26:26.305Z,65.47
2022-11-20T21:28:53.550Z,65.43
2022-11-20T21:31:24.982Z,67.63
2022-11-20T21:33:54.132Z,74.03
2022-11-20T21:36:25.568Z,70.20
2022-11-20T21:38:55.251Z,64.47
2022-11-20T21:41:24.008Z,71.23
2022-11-20T21:44:16.253Z,67.70
2022-11-20T21:46:42.547Z,61.53
2022-11-20T21:49:10.079Z,78.77
2022-11-20T21:51:37.032Z,67.67
2022-11-20T21:54:04.119Z,73.13
2022-11-20T21:56:31.077Z,86.30
2022-11-20T21:58:58.822Z,90.83
2022-11-20T22:01:29.500Z,86.37
2022-11-20T22:04:00.183Z,86.73
2022-11-20T22:06:34.864Z,83.27
2022-11-20T22:09:03.168Z,78.63
2022-11-20T22:11:30.449Z,91.77
2022-11-20T22:14:16.428Z,94.50
2022-11-20T22:16:43.526Z,98.03
2022-11-20T22:19:10.472Z,91.53
2022-11-20T22:21:40.688Z,84.03
2022-11-20T22:24:08.919Z,95.60
2022-11-20T22:26:40.182Z,92.13
2022-11-20T22:29:08.107Z,83.37
2022-11-20T22:31:35.012Z,75.70
2022-11-20T22:34:02.937Z,77.87
2022-11-20T22:36:31.836Z,73.77
2022-11-20T22:38:59.239Z,84.40
2022-11-20T22:41:29.795Z,79.93
2022-11-20T22:44:05.293Z,73.13
2022-11-20T22:46:35.294Z,74.30
2022-11-20T22:49:06.137Z,74.37
2022-11-20T22:51:36.537Z,85.00
2022-11-20T22:54:04.136Z,91.03
2022-11-20T22:56:31.367Z,109.77
2022-11-20T22:58:58.534Z,76.17
2022-11-20T23:01:32.040Z,84.63
2022-11-20T23:04:02.338Z,82.30
2022-11-20T23:06:30.350Z,73.30
2022-11-20T23:08:58.424Z,75.93
2022-11-20T23:11:28.774Z,71.03
2022-11-20T23:14:13.954Z,69.10
2022-11-20T23:16:41.412Z,72.17
2022-11-20T23:19:11.978Z,71.77
2022-11-20T23:21:40.988Z,67.73
2022-11-20T23:24:09.221Z,75.97
2022-11-20T23:26:39.775Z,77.00
2022-11-20T23:29:07.078Z,63.97
2022-11-20T23:31:35.653Z,76.50
2022-11-20T23:34:02.658Z,80.27
2022-11-20T23:36:29.600Z,84.43
2022-11-20T23:38:56.786Z,80.27
2022-11-20T23:41:23.865Z,73.53
2022-11-20T23:43:50.771Z,90.90
2022-11-20T23:46:17.664Z,77.63
2022-11-20T23:48:45.632Z,84.63
2022-11-20T23:51:13.396Z,88.73
2022-11-20T23:53:40.464Z,77.00
2022-11-20T23:56:07.616Z,79.63
2022-11-20T23:58:37.279Z,78.40
